createdAt,value
2019-05-15T00:00:09.999Z,1.20
2019-05-15T00:02:38.784Z,1.10
2019-05-15T00:05:09.035Z,1.07
2019-05-15T00:07:39.193Z,1.20
2019-05-15T00:10:08.618Z,1.40
2019-05-15T00:12:36.176Z,1.00
2019-05-15T00:15:04.504Z,1.00
2019-05-15T00:17:32.476Z,0.90
2019-05-15T00:20:00.371Z,1.10
2019-05-15T00:22:29.142Z,1.10
2019-05-15T00:24:58.153Z,1.10
2019-05-15T00:27:28.375Z,1.10
2019-05-15T00:29:57.818Z,1.30
2019-05-15T00:32:25.634Z,1.10
2019-05-15T00:34:53.639Z,1.20
2019-05-15T00:37:21.743Z,1.80
2019-05-15T00:39:49.785Z,1.70
2019-05-15T00:42:18.986Z,2.00
2019-05-15T00:44:49.304Z,2.20
2019-05-15T00:47:18.080Z,2.30
2019-05-15T00:49:46.107Z,2.20
2019-05-15T00:52:14.142Z,2.43
2019-05-15T00:54:42.156Z,1.70
2019-05-15T00:57:10.172Z,1.50
2019-05-15T00:59:39.038Z,1.10
2019-05-15T01:02:08.678Z,1.23
2019-05-15T01:04:38.737Z,1.20
2019-05-15T01:07:08.323Z,1.60
2019-05-15T01:09:38.305Z,1.30
2019-05-15T01:12:05.740Z,1.40
2019-05-15T01:14:33.673Z,1.47
2019-05-15T01:17:01.681Z,1.43
2019-05-15T01:19:29.606Z,1.40
2019-05-15T01:21:58.665Z,1.47
2019-05-15T01:24:28.261Z,1.50
2019-05-15T01:26:58.425Z,1.80
2019-05-15T01:29:38.488Z,1.40
2019-05-15T01:31:55.715Z,1.40
2019-05-15T01:34:23.686Z,1.43
2019-05-15T01:36:51.586Z,1.60
2019-05-15T01:39:19.575Z,1.40
2019-05-15T01:41:49.666Z,1.60
2019-05-15T01:44:17.929Z,1.80
2019-05-15T01:46:48.132Z,1.83
2019-05-15T01:49:15.715Z,1.60
2019-05-15T01:51:43.795Z,1.57
2019-05-15T01:54:11.886Z,1.90
2019-05-15T01:56:39.871Z,1.70
2019-05-15T01:59:08.682Z,1.53
2019-05-15T02:01:39.077Z,1.60
2019-05-15T02:04:08.278Z,1.50
2019-05-15T02:06:36.059Z,1.80
2019-05-15T02:09:08.113Z,1.90
2019-05-15T02:11:38.077Z,1.77
2019-05-15T02:14:05.291Z,1.70
2019-05-15T02:16:33.304Z,1.53
2019-05-15T02:19:01.311Z,1.50
2019-05-15T02:21:29.295Z,1.73
2019-05-15T02:23:58.804Z,1.70
2019-05-15T02:26:28.204Z,1.50
2019-05-15T02:28:56.519Z,1.60
2019-05-15T02:31:24.492Z,1.60
2019-05-15T02:33:52.410Z,1.70
2019-05-15T02:36:20.928Z,1.40
2019-05-15T02:38:49.078Z,1.80
2019-05-15T02:41:19.516Z,1.50
2019-05-15T02:43:49.736Z,1.67
2019-05-15T02:46:19.294Z,1.90
2019-05-15T02:48:48.678Z,1.80
2019-05-15T02:51:19.099Z,1.60
2019-05-15T02:53:45.204Z,1.50
2019-05-15T02:56:13.148Z,1.63
2019-05-15T02:58:41.588Z,1.50
2019-05-15T03:01:09.753Z,1.80
2019-05-15T03:03:38.686Z,1.70
2019-05-15T03:06:10.036Z,1.53
2019-05-15T03:08:39.559Z,1.77
2019-05-15T03:11:09.516Z,1.40
2019-05-15T03:13:39.014Z,1.50
2019-05-15T03:16:05.969Z,1.80
2019-05-15T03:18:33.894Z,1.87
2019-05-15T03:21:01.856Z,1.77
2019-05-15T03:23:29.896Z,1.93
2019-05-15T03:26:02.978Z,1.50
2019-05-15T03:28:29.468Z,1.67
2019-05-15T03:31:22.500Z,1.57
2019-05-15T03:33:34.208Z,1.60
2019-05-15T03:36:01.766Z,1.60
2019-05-15T03:38:29.741Z,1.60
2019-05-15T03:40:55.645Z,1.50
2019-05-15T03:43:23.543Z,1.20
2019-05-15T03:45:51.450Z,1.77
2019-05-15T03:48:19.769Z,1.40
2019-05-15T03:50:48.833Z,1.30
2019-05-15T03:53:19.293Z,1.30
2019-05-15T03:55:49.010Z,1.40
2019-05-15T03:58:20.908Z,1.33
2019-05-15T04:00:49.563Z,1.50
2019-05-15T04:03:15.718Z,1.60
2019-05-15T04:05:43.704Z,1.60
2019-05-15T04:08:11.789Z,2.00
2019-05-15T04:10:40.308Z,1.60
2019-05-15T04:13:09.585Z,1.90
2019-05-15T04:15:39.443Z,2.10
2019-05-15T04:18:09.208Z,2.20
2019-05-15T04:20:39.935Z,2.20
2019-05-15T04:23:09.773Z,3.40
2019-05-15T04:25:39.182Z,3.60
2019-05-15T04:28:09.684Z,3.60
2019-05-15T04:30:39.305Z,3.13
2019-05-15T04:33:09.396Z,2.43
2019-05-15T04:35:40.039Z,1.83
2019-05-15T04:38:09.346Z,2.00
2019-05-15T04:40:39.749Z,1.80
2019-05-15T04:43:09.935Z,1.60
2019-05-15T04:45:38.993Z,1.63
2019-05-15T04:48:05.629Z,1.90
2019-05-15T04:50:33.612Z,1.83
2019-05-15T04:53:01.609Z,1.40
2019-05-15T04:55:29.512Z,1.07
2019-05-15T04:57:59.249Z,1.50
2019-05-15T05:00:49.181Z,1.53
2019-05-15T05:03:19.347Z,1.30
2019-05-15T05:05:45.464Z,1.37
2019-05-15T05:08:13.412Z,1.20
2019-05-15T05:10:41.340Z,1.40
2019-05-15T05:13:09.440Z,1.30
2019-05-15T05:15:38.933Z,1.60
2019-05-15T05:18:09.572Z,1.27
2019-05-15T05:20:38.229Z,1.60
2019-05-15T05:23:08.418Z,1.60
2019-05-15T05:25:35.894Z,1.80
2019-05-15T05:28:03.864Z,1.70
2019-05-15T05:30:31.788Z,1.67
2019-05-15T05:32:59.893Z,1.60
2019-05-15T05:35:27.971Z,1.47
2019-05-15T05:37:58.209Z,1.53
2019-05-15T05:40:25.610Z,1.50
2019-05-15T05:42:53.573Z,1.73
2019-05-15T05:45:21.487Z,1.80
2019-05-15T05:47:49.396Z,1.60
2019-05-15T05:50:21.050Z,1.50
2019-05-15T05:52:49.102Z,1.30
2019-05-15T05:55:17.886Z,1.30
2019-05-15T05:57:45.846Z,1.10
2019-05-15T06:00:15.323Z,1.20
2019-05-15T06:02:47.578Z,1.30
2019-05-15T06:05:12.973Z,1.30
2019-05-15T06:07:40.893Z,1.30
2019-05-15T06:10:09.157Z,1.33
2019-05-15T06:12:38.986Z,1.10
2019-05-15T06:15:08.907Z,1.33
2019-05-15T06:17:39.157Z,1.10
2019-05-15T06:20:08.082Z,1.23
2019-05-15T06:22:38.412Z,1.03
2019-05-15T06:25:05.925Z,1.13
2019-05-15T06:27:33.875Z,1.30
2019-05-15T06:30:01.859Z,1.33
2019-05-15T06:32:29.757Z,1.13
2019-05-15T06:34:57.870Z,1.10
2019-05-15T06:37:28.518Z,1.30
2019-05-15T06:39:55.524Z,1.10
2019-05-15T06:42:23.523Z,1.20
2019-05-15T06:44:51.507Z,1.40
2019-05-15T06:47:19.406Z,1.30
2019-05-15T06:49:48.639Z,1.10
2019-05-15T06:52:18.113Z,1.10
2019-05-15T06:54:48.356Z,1.20
2019-05-15T06:57:18.232Z,1.13
2019-05-15T06:59:45.486Z,1.27
2019-05-15T07:02:13.397Z,1.00
2019-05-15T07:04:41.383Z,1.20
2019-05-15T07:07:11.231Z,1.27
2019-05-15T07:09:39.313Z,1.10
2019-05-15T07:12:08.017Z,1.10
2019-05-15T07:14:37.822Z,1.10
2019-05-15T07:17:05.716Z,1.20
2019-05-15T07:19:33.720Z,1.30
2019-05-15T07:22:01.703Z,1.13
2019-05-15T07:24:29.651Z,1.10
2019-05-15T07:26:59.189Z,1.10
2019-05-15T07:29:29.202Z,1.30
2019-05-15T07:31:59.115Z,1.20
2019-05-15T07:34:28.362Z,1.30
2019-05-15T07:36:58.941Z,1.13
2019-05-15T07:39:28.691Z,1.30
2019-05-15T07:41:57.803Z,1.00
2019-05-15T07:44:28.053Z,1.17
2019-05-15T07:46:55.369Z,1.10
2019-05-15T07:49:23.347Z,1.00
2019-05-15T07:51:51.383Z,1.30
2019-05-15T07:54:19.300Z,1.00
2019-05-15T07:56:48.769Z,1.30
2019-05-15T07:59:18.740Z,1.23
2019-05-15T08:01:48.743Z,1.30
2019-05-15T08:04:26.079Z,1.10
2019-05-15T08:06:46.002Z,1.30
2019-05-15T08:09:14.007Z,1.07
2019-05-15T08:11:42.054Z,1.13
2019-05-15T08:14:10.090Z,1.27
2019-05-15T08:16:39.504Z,0.93
2019-05-15T08:19:08.639Z,1.20
2019-05-15T08:21:38.516Z,1.10
2019-05-15T08:24:08.381Z,1.40
2019-05-15T08:26:37.982Z,1.20
2019-05-15T08:29:05.562Z,1.20
2019-05-15T08:31:33.552Z,1.10
2019-05-15T08:34:12.677Z,1.27
2019-05-15T08:36:31.441Z,1.20
2019-05-15T08:38:59.588Z,1.57
2019-05-15T08:41:29.533Z,1.27
2019-05-15T08:43:57.962Z,1.27
2019-05-15T08:46:27.938Z,1.50
2019-05-15T08:48:58.305Z,1.20
2019-05-15T08:51:28.379Z,1.40
2019-05-15T08:53:58.006Z,1.20
2019-05-15T08:56:28.684Z,1.30
2019-05-15T08:58:55.401Z,1.40
2019-05-15T09:01:23.515Z,1.50
2019-05-15T09:03:51.462Z,1.30
2019-05-15T09:06:22.838Z,1.20
2019-05-15T09:08:49.414Z,1.40
2019-05-15T09:11:19.252Z,1.20
2019-05-15T09:13:52.798Z,1.40
2019-05-15T09:16:18.491Z,1.23
2019-05-15T09:18:48.335Z,1.33
2019-05-15T09:21:15.967Z,1.40
2019-05-15T09:23:43.865Z,1.50
2019-05-15T09:26:11.875Z,1.20
2019-05-15T09:28:39.807Z,1.20
2019-05-15T09:31:08.375Z,1.30
2019-05-15T09:33:38.645Z,1.27
2019-05-15T09:36:08.810Z,1.27
2019-05-15T09:38:38.554Z,1.40
2019-05-15T09:41:05.857Z,1.30
2019-05-15T09:43:33.816Z,1.17
2019-05-15T09:46:01.888Z,1.20
2019-05-15T09:48:29.939Z,1.30
2019-05-15T09:50:58.791Z,1.10
2019-05-15T09:53:28.568Z,1.13
2019-05-15T09:55:56.737Z,1.30
2019-05-15T09:58:24.727Z,1.10
2019-05-15T10:00:53.624Z,1.20
2019-05-15T10:03:22.056Z,1.10
2019-05-15T10:05:50.015Z,1.30
2019-05-15T10:08:20.899Z,1.07
2019-05-15T10:10:48.724Z,1.13
2019-05-15T10:13:18.444Z,1.30
2019-05-15T10:15:50.559Z,1.23
2019-05-15T10:18:18.742Z,1.23
2019-05-15T10:20:46.018Z,1.00
2019-05-15T10:23:13.972Z,1.20
2019-05-15T10:25:41.955Z,1.20
2019-05-15T10:28:10.136Z,1.00
2019-05-15T10:30:39.504Z,1.10
2019-05-15T10:33:08.573Z,1.40
2019-05-15T10:35:39.136Z,1.20
2019-05-15T10:38:09.443Z,1.20
2019-05-15T10:40:39.511Z,1.13
2019-05-15T10:43:09.073Z,1.10
2019-05-15T10:45:41.579Z,1.13
2019-05-15T10:48:06.015Z,1.30
2019-05-15T10:50:34.030Z,1.33
2019-05-15T10:53:02.478Z,1.20
2019-05-15T10:55:30.435Z,1.40
2019-05-15T10:57:58.344Z,1.20
2019-05-15T11:00:28.506Z,1.30
2019-05-15T11:02:57.951Z,1.20
2019-05-15T11:05:38.355Z,1.30
2019-05-15T11:07:55.368Z,1.40
2019-05-15T11:10:23.293Z,1.20
2019-05-15T11:12:51.194Z,1.07
2019-05-15T11:15:19.604Z,1.13
2019-05-15T11:17:49.190Z,1.20
2019-05-15T11:20:18.793Z,1.17
2019-05-15T11:22:49.668Z,1.30
2019-05-15T11:25:16.907Z,1.00
2019-05-15T11:27:44.900Z,1.20
2019-05-15T11:30:13.287Z,1.20
2019-05-15T11:32:41.232Z,1.23
2019-05-15T11:35:09.549Z,1.10
2019-05-15T11:37:44.702Z,1.10
2019-05-15T11:40:10.023Z,1.17
2019-05-15T11:42:39.290Z,1.00
2019-05-15T11:45:06.843Z,1.20
2019-05-15T11:47:34.874Z,1.10
2019-05-15T11:50:02.875Z,1.20
2019-05-15T11:52:30.889Z,1.20
2019-05-15T11:54:59.069Z,1.00
2019-05-15T11:57:42.136Z,1.10
2019-05-15T11:59:59.569Z,1.30
2019-05-15T12:02:29.160Z,1.20
2019-05-15T12:04:58.408Z,1.07
2019-05-15T12:07:25.895Z,1.00
2019-05-15T12:09:53.899Z,1.10
2019-05-15T12:12:21.820Z,1.30
2019-05-15T12:14:49.824Z,1.30
2019-05-15T12:17:19.001Z,1.30
2019-05-15T12:19:54.876Z,1.07
2019-05-15T12:22:16.742Z,1.10
2019-05-15T12:24:44.717Z,1.03
2019-05-15T12:27:17.985Z,1.37
2019-05-15T12:29:42.367Z,1.10
2019-05-15T12:34:39.933Z,1.20
2019-05-15T12:37:09.761Z,1.10
2019-05-15T12:39:40.937Z,1.03
2019-05-15T13:02:04.636Z,1.20
2019-05-15T13:04:32.588Z,1.00
2019-05-15T13:07:13.066Z,1.13
2019-05-15T13:09:30.227Z,1.20
2019-05-15T13:11:58.215Z,1.03
2019-05-15T13:14:28.349Z,1.10
2019-05-15T13:16:58.612Z,1.03
2019-05-15T13:19:28.238Z,0.90
2019-05-15T13:21:55.379Z,1.00
2019-05-15T13:24:23.432Z,0.90
2019-05-15T13:26:51.355Z,0.90
2019-05-15T13:29:19.449Z,1.10
2019-05-15T13:31:47.762Z,0.80
2019-05-15T13:34:19.390Z,1.10
2019-05-15T13:36:48.390Z,1.10
2019-05-15T13:39:17.929Z,1.10
2019-05-15T13:41:44.986Z,0.80
2019-05-15T13:44:13.095Z,1.40
2019-05-15T13:46:41.062Z,1.03
2019-05-15T13:49:09.025Z,1.00
2019-05-15T13:51:38.415Z,1.07
2019-05-15T13:54:08.671Z,1.03
2019-05-15T13:56:38.192Z,1.00
2019-05-15T13:59:08.053Z,1.10
2019-05-15T14:01:35.930Z,0.97
2019-05-15T14:04:03.938Z,0.97
2019-05-15T14:06:31.904Z,1.10
2019-05-15T14:08:59.811Z,1.10
2019-05-15T14:11:31.021Z,1.00
2019-05-15T14:13:59.456Z,0.90
2019-05-15T14:16:28.293Z,1.30
2019-05-15T14:18:58.575Z,1.00
2019-05-15T14:21:28.374Z,1.10
2019-05-15T14:23:58.213Z,1.00
2019-05-15T14:26:25.417Z,1.00
2019-05-15T14:28:53.377Z,1.00
2019-05-15T14:31:21.347Z,0.90
2019-05-15T14:33:49.388Z,1.00
2019-05-15T14:36:18.419Z,0.97
2019-05-15T14:38:48.499Z,0.90
2019-05-15T14:41:19.018Z,1.10
2019-05-15T14:43:48.326Z,0.90
2019-05-15T14:46:18.391Z,0.93
2019-05-15T14:48:45.596Z,0.90
2019-05-15T14:51:13.523Z,1.00
2019-05-15T14:53:41.580Z,0.90
2019-05-15T14:56:09.564Z,1.03
2019-05-15T14:58:38.669Z,1.00
2019-05-15T15:01:12.142Z,1.10
2019-05-15T15:03:38.107Z,0.80
2019-05-15T15:06:08.486Z,1.00
2019-05-15T15:08:35.996Z,0.90
2019-05-15T15:11:03.972Z,0.90
2019-05-15T15:13:32.076Z,1.10
2019-05-15T15:16:00.045Z,0.90
2019-05-15T15:18:28.228Z,0.90
2019-05-15T15:20:58.002Z,0.90
2019-05-15T15:23:28.170Z,1.00
2019-05-15T15:25:57.720Z,0.90
2019-05-15T15:28:25.456Z,1.00
2019-05-15T15:30:53.504Z,1.10
2019-05-15T15:33:21.577Z,1.00
2019-05-15T15:35:49.655Z,1.10
2019-05-15T15:38:27.114Z,0.90
2019-05-15T15:40:48.148Z,1.00
2019-05-15T15:43:16.379Z,1.03
2019-05-15T15:45:44.366Z,1.10
2019-05-15T15:48:12.361Z,0.90
2019-05-15T15:50:40.420Z,0.97
2019-05-15T15:53:09.100Z,1.03
2019-05-15T15:55:38.518Z,1.10
2019-05-15T15:58:08.736Z,1.13
2019-05-15T16:00:38.389Z,1.00
2019-05-15T16:03:08.206Z,1.00
2019-05-15T16:05:38.202Z,0.97
2019-05-15T16:08:05.639Z,0.97
2019-05-15T16:10:33.595Z,0.90
2019-05-15T16:13:01.649Z,0.97
2019-05-15T16:15:29.635Z,0.80
2019-05-15T16:17:59.400Z,1.20
2019-05-15T16:20:28.628Z,0.87
2019-05-15T16:22:59.006Z,1.03
2019-05-15T16:25:28.706Z,1.03
2019-05-15T16:27:57.806Z,0.90
2019-05-15T16:30:28.033Z,0.90
2019-05-15T16:32:58.285Z,1.20
2019-05-15T16:35:25.340Z,0.90
2019-05-15T16:37:53.389Z,0.90
2019-05-15T16:40:21.424Z,0.90
2019-05-15T16:42:49.483Z,0.90
2019-05-15T16:45:17.955Z,0.97
2019-05-15T16:47:47.893Z,0.90
2019-05-15T16:50:17.613Z,0.90
2019-05-15T16:52:45.319Z,0.97
2019-05-15T16:55:13.441Z,0.97
2019-05-15T16:57:41.441Z,0.90
2019-05-15T17:00:10.260Z,0.93
2019-05-15T17:02:39.291Z,1.00
2019-05-15T17:05:08.541Z,0.90
2019-05-15T17:07:38.741Z,0.80
2019-05-15T17:10:08.591Z,0.97
2019-05-15T17:12:38.762Z,0.90
2019-05-15T17:15:08.493Z,1.00
2019-05-15T17:17:38.362Z,1.07
2019-05-15T17:20:06.225Z,0.90
2019-05-15T17:22:34.278Z,1.00
2019-05-15T17:25:02.228Z,1.00
2019-05-15T17:27:30.259Z,1.00
2019-05-15T17:29:58.526Z,1.00
2019-05-15T17:32:29.016Z,1.00
2019-05-15T17:34:58.913Z,0.90
2019-05-15T17:37:28.686Z,1.00
2019-05-15T17:39:58.799Z,0.93
2019-05-15T17:42:28.756Z,0.90
2019-05-15T17:44:57.935Z,1.00
2019-05-15T17:47:25.864Z,1.00
2019-05-15T17:49:58.908Z,1.00
2019-05-15T17:52:28.913Z,1.07
2019-05-15T17:54:59.104Z,1.00
2019-05-15T17:57:28.645Z,0.93
2019-05-15T17:59:56.859Z,1.20
2019-05-15T18:02:28.425Z,0.90
2019-05-15T18:04:55.627Z,0.90
2019-05-15T18:07:23.686Z,0.97
2019-05-15T18:09:54.401Z,0.90
2019-05-15T18:12:21.320Z,0.90
2019-05-15T18:14:49.412Z,1.10
2019-05-15T18:17:18.672Z,1.00
2019-05-15T18:19:48.611Z,1.17
2019-05-15T18:22:18.089Z,1.03
2019-05-15T18:24:48.181Z,1.00
2019-05-15T18:27:18.356Z,1.00
2019-05-15T18:29:47.923Z,1.00
2019-05-15T18:32:15.051Z,0.90
2019-05-15T18:34:43.091Z,1.10
2019-05-15T18:37:11.100Z,0.90
2019-05-15T18:39:39.138Z,0.93
2019-05-15T18:42:07.649Z,1.10
2019-05-15T18:44:35.672Z,1.00
2019-05-15T18:47:03.735Z,1.10
2019-05-15T18:49:31.720Z,1.17
2019-05-15T18:51:59.681Z,1.10
2019-05-15T18:54:28.048Z,1.00
2019-05-15T18:56:58.282Z,1.00
2019-05-15T18:59:25.721Z,1.07
2019-05-15T19:01:53.725Z,0.90
2019-05-15T19:04:21.716Z,0.97
2019-05-15T19:06:49.923Z,0.90
2019-05-15T19:09:18.911Z,1.00
2019-05-15T19:11:48.842Z,1.00
2019-05-15T19:14:19.013Z,1.00
2019-05-15T19:16:48.474Z,0.97
2019-05-15T19:19:18.429Z,1.40
2019-05-15T19:21:45.827Z,1.67
2019-05-15T19:24:13.787Z,1.50
2019-05-15T19:26:41.790Z,1.40
2019-05-15T19:29:09.835Z,1.30
2019-05-15T19:31:39.152Z,1.10
2019-05-15T19:34:08.598Z,1.20
2019-05-15T19:36:38.246Z,1.20
2019-05-15T19:39:08.071Z,1.10
2019-05-15T19:41:38.243Z,1.37
2019-05-15T19:44:06.055Z,1.20
2019-05-15T19:46:34.276Z,1.67
2019-05-15T19:49:02.286Z,1.70
2019-05-15T19:51:30.551Z,1.90
2019-05-15T19:53:58.966Z,2.50
2019-05-15T19:56:26.941Z,2.30
2019-05-15T19:58:54.975Z,2.00
2019-05-15T20:01:22.973Z,1.77
2019-05-15T20:03:53.325Z,1.70
2019-05-15T20:06:20.641Z,1.70
2019-05-15T20:08:48.682Z,1.80
2019-05-15T20:11:18.414Z,2.00
2019-05-15T20:13:48.695Z,1.67
2019-05-15T20:16:18.935Z,1.60
2019-05-15T20:18:47.826Z,1.60
2019-05-15T20:21:15.504Z,1.80
2019-05-15T20:23:43.467Z,1.53
2019-05-15T20:26:11.509Z,1.60
2019-05-15T20:28:39.487Z,1.50
2019-05-15T20:31:07.896Z,1.50
2019-05-15T20:33:37.877Z,1.70
2019-05-15T20:36:05.924Z,1.77
2019-05-15T20:38:33.869Z,1.67
2019-05-15T20:41:01.884Z,1.50
2019-05-15T20:43:29.907Z,2.20
2019-05-15T20:45:58.351Z,1.70
2019-05-15T20:48:28.715Z,1.57
2019-05-15T20:50:58.725Z,1.50
2019-05-15T20:53:25.745Z,1.40
2019-05-15T20:55:53.711Z,1.50
2019-05-15T20:58:21.983Z,1.33
2019-05-15T21:00:49.914Z,1.80
2019-05-15T21:03:18.317Z,1.50
2019-05-15T21:05:48.678Z,1.50
2019-05-15T21:08:17.830Z,1.40
2019-05-15T21:10:45.652Z,1.80
2019-05-15T21:13:13.708Z,1.50
2019-05-15T21:15:41.716Z,1.43
2019-05-15T21:18:23.874Z,1.30
2019-05-15T21:20:51.187Z,1.70
2019-05-15T21:23:19.100Z,1.60
2019-05-15T21:25:48.429Z,1.50
2019-05-15T21:28:23.682Z,1.63
2019-05-15T21:30:51.647Z,1.40
2019-05-15T21:33:19.735Z,2.10
2019-05-15T21:35:47.960Z,1.73
2019-05-15T21:38:15.958Z,1.77
2019-05-15T21:40:43.968Z,1.83
2019-05-15T21:43:11.918Z,1.70
2019-05-15T21:45:39.975Z,1.60
2019-05-15T21:48:09.052Z,1.60
2019-05-15T21:50:38.790Z,1.70
2019-05-15T21:53:07.048Z,1.40
2019-05-15T21:55:35.143Z,1.50
2019-05-15T21:58:03.455Z,1.70
2019-05-15T22:00:38.028Z,1.73
2019-05-15T22:03:05.539Z,1.50
2019-05-15T22:05:33.536Z,1.40
2019-05-15T22:08:01.630Z,1.30
2019-05-15T22:10:29.645Z,1.30
2019-05-15T22:12:58.875Z,1.43
2019-05-15T22:15:28.560Z,1.60
2019-05-15T22:17:56.875Z,1.47
2019-05-15T22:20:24.913Z,1.40
2019-05-15T22:22:52.933Z,1.60
2019-05-15T22:25:20.909Z,1.40
2019-05-15T22:27:49.640Z,1.53
2019-05-15T22:30:18.550Z,1.60
2019-05-15T22:32:49.181Z,1.40
2019-05-15T22:35:18.872Z,1.40
2019-05-15T22:37:49.329Z,1.30
2019-05-15T22:40:18.333Z,1.67
2019-05-15T22:42:48.640Z,1.60
2019-05-15T22:45:18.385Z,1.43
2019-05-15T22:47:48.218Z,1.50
2019-05-15T22:50:18.726Z,1.40
2019-05-15T22:52:48.964Z,1.50
2019-05-15T22:55:18.193Z,1.60
2019-05-15T22:57:47.839Z,1.43
2019-05-15T23:00:15.525Z,1.60
2019-05-15T23:02:44.056Z,1.40
2019-05-15T23:05:23.774Z,1.60
2019-05-15T23:07:41.759Z,1.50
2019-05-15T23:10:09.847Z,1.50
2019-05-15T23:12:38.384Z,1.50
2019-05-15T23:15:08.612Z,1.50
2019-05-15T23:17:38.251Z,1.60
2019-05-15T23:20:08.521Z,1.53
2019-05-15T23:22:35.716Z,1.40
2019-05-15T23:25:03.679Z,1.50
2019-05-15T23:27:31.599Z,1.60
2019-05-15T23:29:59.529Z,1.60
2019-05-15T23:32:28.913Z,1.80
2019-05-15T23:34:58.371Z,1.67
2019-05-15T23:37:28.049Z,1.80
2019-05-15T23:39:57.980Z,1.63
2019-05-15T23:42:25.888Z,1.40
2019-05-15T23:44:53.883Z,1.50
2019-05-15T23:47:21.799Z,1.70
2019-05-15T23:49:49.775Z,1.50
2019-05-15T23:52:17.751Z,1.67
2019-05-15T23:54:45.695Z,1.90
2019-05-15T23:57:13.692Z,1.67
2019-05-15T23:59:41.665Z,1.80
